Adger, AL

9:18 PM CDT on September 19, 2014 (GMT -0500)
Oak Grove | Change Station
CLOSE
Current Station
Personal Weather Station
Location: Bessemer, AL
Elevation: 371 ft
Nearby Weather Stations

Elev 371 ft 33.55 °N, 87.16 °W | Updated 3 minutes ago

Clear
Clear
71.4 °F
Feels Like 71.4 °F
N
0.0
Wind Variable Wind from SW

Today
High -- | Low -- °F
--% Chance of Precip.
Yesterday
High -- | Low -- °F
Precip. -- in
6:34 AM 6:49 PM
Waning Crescent, 15% visible
Pressure 30.07 in
Visibility 10.0 miles
Clouds Few 8000 ft
Dew Point 70 °F
Humidity 97%
Rainfall 0.00 in
Snow Depth Not available.
UV 0 out of 12
Pollen 8.20 out of 12
Ozone Good
PM2.5 Moderate
Flu Activity Not available.
METAR KBHM 200153Z 09007KT 10SM FEW080 25/18 A3007

More Conditions Fewer Conditions

Pressure 30.07 in
Visibility 10.0 miles
Clouds Few 8000 ft
Dew Point 70 °F
Humidity 97%
Rainfall 0.00 in
Snow Depth Not available.
UV 0 out of 12
Pollen 8.20 out of 12
Ozone Good
PM2.5 Moderate
Flu Activity Not available.
METAR KBHM 200153Z 09007KT 10SM FEW080 25/18 A3007

More Conditions Fewer Conditions

10-Day Weather Forecast

Almanac

Astronomy

Sep. 19, 2014 Rise Set
Actual Time 6:34 AM CDT 6:49 PM CDT
Civil Twilight 6:10 AM CDT 7:14 PM CDT
Nautical Twilight 5:41 AM CDT 7:43 PM CDT
Astronomical Twilight 5:11 AM CDT 8:12 PM CDT
Moon 2:29 AM CDT (9/19) 4:09 PM CDT (9/19)
Length of Visible Light 13h 04m
Length of Day
12h 14m
Tomorrow will be 2m 4s shorter.
Waning Crescent, 15% of the Moon is Illuminated
Today
Waning Crescent
Sep 24
New
Oct 1
First Quarter
Oct 8
Full
Oct 15
Last Quarter

Today's Extremes

State Highs State Lows

Community

WunderPhotos

Upload Photos

1,754,761 photos uploaded!

WunderBlogs® & News

Nearby

Air Quality

  Air Quality AQ Index Pollutant
Yesterday Good
PM10
Yesterday Good
OZONE
Current Moderate
PM2.5
Current Good
OZONE
Friday Moderate
PM2.5
Friday Good
OZONE
Saturday Good
PM2.5
Saturday Good
OZONE
Sunday Moderate
PM2.5
Sunday Good
OZONE
Monday Good
OZONE
Monday Good
PM2.5

Snow Depth

Station Depth Elevation
No new snow has been reported.

Earthquake Activity

City Distance Mag. Time & Date
No recent earthquake activity has been reported nearby.
Minimum magnitude displayed is 2.5.

Coastal Water Temperatures

Place Temperature
No Stations Reporting

Nearby Weather Stations